createdAt,value
2023-10-29T00:00:19.505Z,93281.47
2023-10-29T00:03:22.963Z,93300.22
2023-10-29T00:06:26.400Z,93283.44
2023-10-29T00:09:29.801Z,93292.00
2023-10-29T00:12:33.096Z,93294.84
2023-10-29T00:15:36.537Z,93293.81
2023-10-29T00:18:39.887Z,93292.66
2023-10-29T00:21:43.254Z,93307.88
2023-10-29T00:24:46.758Z,93310.50
2023-10-29T00:27:50.232Z,93318.53
2023-10-29T00:30:57.183Z,93313.91
2023-10-29T00:34:00.589Z,93309.88
2023-10-29T00:37:04.944Z,93305.59
2023-10-29T00:40:08.940Z,93312.78
2023-10-29T00:43:18.310Z,93304.06
2023-10-29T00:46:21.918Z,93322.34
2023-10-29T00:49:25.935Z,93325.72
2023-10-29T00:52:29.665Z,93319.91
2023-10-29T00:55:33.655Z,93324.25
2023-10-29T00:58:37.853Z,93327.13
2023-10-29T01:01:41.211Z,93334.19
2023-10-29T01:04:47.249Z,93332.41
2023-10-29T01:07:50.932Z,93336.59
2023-10-29T01:10:55.098Z,93334.88
2023-10-29T01:13:58.465Z,93337.47
2023-10-29T01:17:01.872Z,93340.38
2023-10-29T01:20:05.758Z,93340.66
2023-10-29T01:23:09.764Z,93333.44
2023-10-29T01:26:13.290Z,93334.75
2023-10-29T01:29:17.929Z,93336.78
2023-10-29T01:32:21.611Z,93331.53
2023-10-29T01:35:25.842Z,93328.72
2023-10-29T01:38:29.121Z,93324.78
2023-10-29T01:41:32.521Z,93324.94
2023-10-29T01:44:35.739Z,93328.78
2023-10-29T01:47:39.062Z,93328.41
2023-10-29T01:50:42.481Z,93329.66
2023-10-29T01:53:45.754Z,93335.88
2023-10-29T01:56:48.983Z,93336.31
2023-10-29T01:59:52.273Z,93333.66
2023-10-29T02:02:56.000Z,93335.66
2023-10-29T02:06:00.723Z,93335.72
2023-10-29T02:09:05.143Z,93328.25
2023-10-29T02:12:08.785Z,93325.13
2023-10-29T02:15:12.096Z,93327.66
2023-10-29T02:18:15.539Z,93322.13
2023-10-29T02:21:19.139Z,93322.19
2023-10-29T02:24:22.376Z,93324.13
2023-10-29T02:27:25.670Z,93330.53
2023-10-29T02:30:28.856Z,93335.41
2023-10-29T02:33:32.436Z,93333.19
2023-10-29T02:36:35.773Z,93339.84
2023-10-29T02:39:39.097Z,93329.16
2023-10-29T02:42:43.286Z,93329.44
2023-10-29T02:45:46.641Z,93321.09
2023-10-29T02:48:49.956Z,93328.72
2023-10-29T02:51:53.497Z,93327.91
2023-10-29T02:54:58.237Z,93325.91
2023-10-29T02:58:01.256Z,93324.88
2023-10-29T03:01:09.568Z,93321.69
2023-10-29T03:04:12.989Z,93320.56
2023-10-29T03:07:16.325Z,93319.78
2023-10-29T03:10:19.668Z,93322.88
2023-10-29T03:13:22.847Z,93328.94
2023-10-29T03:16:26.069Z,93325.00
2023-10-29T03:19:29.492Z,93317.28
2023-10-29T03:22:36.220Z,93319.75
2023-10-29T03:25:39.569Z,93308.53
2023-10-29T03:28:44.105Z,93307.28
2023-10-29T03:31:47.403Z,93295.84
2023-10-29T03:34:50.834Z,93298.91
2023-10-29T03:37:55.990Z,93296.88
2023-10-29T03:40:59.364Z,93278.78
2023-10-29T03:44:02.646Z,93287.66
2023-10-29T03:47:06.086Z,93277.69
2023-10-29T03:50:10.698Z,93272.31
2023-10-29T03:53:13.943Z,93276.34
2023-10-29T03:56:17.420Z,93269.72
2023-10-29T03:59:20.690Z,93268.66
2023-10-29T04:02:24.120Z,93268.47
2023-10-29T04:05:27.800Z,93269.47
2023-10-29T04:08:31.029Z,93265.06
2023-10-29T04:11:34.701Z,93264.69
2023-10-29T04:14:38.926Z,93267.19
2023-10-29T04:17:42.254Z,93266.78
2023-10-29T04:20:45.896Z,93262.06
2023-10-29T04:23:49.224Z,93259.53
2023-10-29T04:26:53.067Z,93260.81
2023-10-29T04:29:56.604Z,93262.13
2023-10-29T04:33:00.477Z,93258.28
2023-10-29T04:36:04.075Z,93258.59
2023-10-29T04:39:07.485Z,93242.69
2023-10-29T04:42:10.792Z,93239.72
2023-10-29T04:45:14.015Z,93248.47
2023-10-29T04:48:18.073Z,93238.09
2023-10-29T04:51:21.952Z,93247.84
2023-10-29T04:54:25.181Z,93244.25
2023-10-29T04:57:32.250Z,93239.41
2023-10-29T05:00:35.441Z,93229.66
2023-10-29T05:03:38.899Z,93235.53
2023-10-29T05:06:42.273Z,93232.50
2023-10-29T05:09:45.864Z,93242.47
2023-10-29T05:12:49.124Z,93247.09
2023-10-29T05:15:52.403Z,93243.13
2023-10-29T05:18:55.640Z,93246.91
2023-10-29T05:21:58.843Z,93232.81
2023-10-29T05:25:04.396Z,93240.09
2023-10-29T05:28:07.681Z,93239.50
2023-10-29T05:31:10.924Z,93224.94
2023-10-29T05:34:16.275Z,93231.47
2023-10-29T05:37:19.670Z,93233.75
2023-10-29T05:40:22.948Z,93238.63
2023-10-29T05:43:26.161Z,93243.31
2023-10-29T05:46:29.678Z,93230.97
2023-10-29T05:49:32.937Z,93223.34
2023-10-29T05:52:36.270Z,93232.31
2023-10-29T05:55:41.400Z,93226.28
2023-10-29T05:58:44.545Z,93232.69
2023-10-29T06:01:47.748Z,93228.94
2023-10-29T06:04:51.953Z,93219.78
2023-10-29T06:07:55.202Z,93224.97
2023-10-29T06:10:58.987Z,93218.94
2023-10-29T06:14:03.830Z,93225.97
2023-10-29T06:17:19.819Z,93230.47
2023-10-29T06:20:30.631Z,93225.97
2023-10-29T06:23:34.993Z,93224.78
2023-10-29T06:26:39.926Z,93223.13
2023-10-29T06:29:43.616Z,93224.78
2023-10-29T06:32:47.856Z,93217.97
2023-10-29T06:35:51.795Z,93214.28
2023-10-29T06:38:55.263Z,93205.34
2023-10-29T06:41:59.369Z,93212.81
2023-10-29T06:45:03.927Z,93202.91
2023-10-29T06:48:08.308Z,93207.00
2023-10-29T06:51:12.798Z,93199.75
2023-10-29T06:54:16.044Z,93189.50
2023-10-29T06:57:20.122Z,93193.09
2023-10-29T07:00:23.329Z,93188.63
2023-10-29T07:03:27.441Z,93186.25
2023-10-29T07:06:32.662Z,93186.19
2023-10-29T07:09:35.889Z,93193.97
2023-10-29T07:12:40.990Z,93195.28
2023-10-29T07:15:45.700Z,93194.69
2023-10-29T07:18:49.828Z,93196.09
2023-10-29T07:21:53.158Z,93191.03
2023-10-29T07:24:56.591Z,93196.13
2023-10-29T07:28:00.238Z,93187.09
2023-10-29T07:31:04.696Z,93193.03
2023-10-29T07:34:08.144Z,93188.38
2023-10-29T07:37:12.122Z,93184.97
2023-10-29T07:40:15.445Z,93187.56
2023-10-29T07:43:19.270Z,93188.09
2023-10-29T07:46:22.549Z,93183.22
2023-10-29T07:49:26.116Z,93186.31
2023-10-29T07:52:29.418Z,93188.88
2023-10-29T07:55:33.244Z,93193.66
2023-10-29T07:58:36.947Z,93194.25
2023-10-29T08:01:40.197Z,93195.31
2023-10-29T08:04:43.389Z,93192.25
2023-10-29T08:07:46.694Z,93199.75
2023-10-29T08:10:49.978Z,93195.84
2023-10-29T08:13:53.193Z,93197.28
2023-10-29T08:16:56.554Z,93195.25
2023-10-29T08:20:02.660Z,93193.13
2023-10-29T08:23:05.945Z,93196.72
2023-10-29T08:26:09.187Z,93199.09
2023-10-29T08:29:14.175Z,93205.44
2023-10-29T08:32:18.166Z,93201.41
2023-10-29T08:35:21.425Z,93204.47
2023-10-29T08:38:24.923Z,93203.69
2023-10-29T08:41:28.330Z,93200.97
2023-10-29T08:44:31.763Z,93204.06
2023-10-29T08:47:35.855Z,93200.59
2023-10-29T08:50:39.370Z,93205.56
2023-10-29T08:53:42.819Z,93210.41
2023-10-29T08:56:48.041Z,93205.78
2023-10-29T08:59:55.060Z,93219.22
2023-10-29T09:02:59.144Z,93211.88
2023-10-29T09:06:05.900Z,93216.78
2023-10-29T09:09:09.216Z,93209.38
2023-10-29T09:12:12.540Z,93224.53
2023-10-29T09:15:16.953Z,93226.81
2023-10-29T09:18:20.972Z,93222.09
2023-10-29T09:21:24.438Z,93230.38
2023-10-29T09:24:27.602Z,93232.06
2023-10-29T09:27:30.786Z,93237.91
2023-10-29T09:30:34.537Z,93235.25
2023-10-29T09:33:38.167Z,93246.09
2023-10-29T09:36:41.509Z,93250.38
2023-10-29T09:39:45.607Z,93255.31
2023-10-29T09:42:57.792Z,93257.16
2023-10-29T09:46:06.828Z,93264.81
2023-10-29T09:49:10.214Z,93260.22
2023-10-29T09:52:15.444Z,93273.13
2023-10-29T09:55:23.645Z,93276.47
2023-10-29T09:58:28.149Z,93282.94
2023-10-29T10:01:33.818Z,93284.06
2023-10-29T10:04:40.956Z,93287.72
2023-10-29T10:07:44.540Z,93290.00
2023-10-29T10:10:49.110Z,93295.84
2023-10-29T10:13:52.804Z,93288.81
2023-10-29T10:17:16.250Z,93295.88
2023-10-29T10:20:24.709Z,93296.94
2023-10-29T10:23:27.943Z,93303.78
2023-10-29T10:26:36.303Z,93302.88
2023-10-29T10:29:40.231Z,93298.72
2023-10-29T10:32:44.279Z,93310.66
2023-10-29T10:36:01.870Z,93310.50
2023-10-29T10:39:05.472Z,93316.13
2023-10-29T10:42:09.743Z,93320.06
2023-10-29T10:45:17.660Z,93317.00
2023-10-29T10:48:21.361Z,93319.94
2023-10-29T10:51:24.976Z,93326.31
2023-10-29T10:54:29.000Z,93321.09
2023-10-29T10:57:34.652Z,93324.63
2023-10-29T11:00:37.912Z,93324.13
2023-10-29T11:03:41.683Z,93319.63
2023-10-29T11:06:48.711Z,93323.69
2023-10-29T11:09:53.112Z,93329.16
2023-10-29T11:12:56.548Z,93324.84
2023-10-29T11:16:03.935Z,93322.13
2023-10-29T11:19:36.433Z,93330.81
2023-10-29T11:22:49.528Z,93324.38
2023-10-29T11:26:21.301Z,93331.66
2023-10-29T11:29:43.150Z,93328.59
2023-10-29T11:32:48.036Z,93322.63
2023-10-29T11:35:51.411Z,93330.16
2023-10-29T11:38:54.660Z,93332.53
2023-10-29T11:41:58.516Z,93328.91
2023-10-29T11:45:29.898Z,93335.06
2023-10-29T11:48:33.566Z,93336.69
2023-10-29T11:51:36.785Z,93336.50
2023-10-29T11:54:40.854Z,93336.88
2023-10-29T11:57:47.157Z,93346.47
2023-10-29T12:00:50.453Z,93341.44
2023-10-29T12:03:54.239Z,93340.19
2023-10-29T12:06:58.482Z,93341.88
2023-10-29T12:10:07.974Z,93339.22
2023-10-29T12:13:11.564Z,93343.09
2023-10-29T12:16:14.981Z,93340.78
2023-10-29T12:19:18.241Z,93344.59
2023-10-29T12:22:25.645Z,93340.28
2023-10-29T12:25:29.640Z,93340.53
2023-10-29T12:28:35.197Z,93342.25
2023-10-29T12:31:38.450Z,93340.56
2023-10-29T12:34:52.366Z,93343.47
2023-10-29T12:37:55.802Z,93350.53
2023-10-29T12:41:06.713Z,93351.69
2023-10-29T12:44:19.246Z,93351.44
2023-10-29T12:47:26.214Z,93350.22
2023-10-29T12:50:29.409Z,93352.78
2023-10-29T12:53:33.751Z,93354.44
2023-10-29T12:56:52.689Z,93357.91
2023-10-29T12:59:55.970Z,93358.16
2023-10-29T13:02:59.637Z,93363.47
2023-10-29T13:06:02.999Z,93354.56
2023-10-29T13:09:09.521Z,93357.25
2023-10-29T13:12:13.627Z,93363.81
2023-10-29T13:15:17.077Z,93363.06
2023-10-29T13:18:21.196Z,93361.72
2023-10-29T13:21:28.098Z,93363.72
2023-10-29T13:24:34.717Z,93360.16
2023-10-29T13:27:39.316Z,93355.13
2023-10-29T13:30:42.550Z,93362.13
2023-10-29T13:33:47.198Z,93358.16
2023-10-29T13:36:50.112Z,93352.00
2023-10-29T13:39:53.896Z,93358.16
2023-10-29T13:42:57.234Z,93358.66
2023-10-29T13:46:04.477Z,93353.84
2023-10-29T13:49:07.700Z,93359.22
2023-10-29T13:52:11.352Z,93350.59
2023-10-29T13:55:14.688Z,93357.28
2023-10-29T13:58:18.040Z,93356.06
2023-10-29T14:01:23.502Z,93349.78
2023-10-29T14:04:26.850Z,93349.78
2023-10-29T14:07:31.984Z,93356.25
2023-10-29T14:10:35.227Z,93347.22
2023-10-29T14:13:38.676Z,93351.78
2023-10-29T14:16:43.422Z,93350.69
2023-10-29T14:19:47.341Z,93361.06
2023-10-29T14:22:50.875Z,93357.81
2023-10-29T14:25:54.052Z,93358.50
2023-10-29T14:28:57.369Z,93353.84
2023-10-29T14:32:00.670Z,93351.25
2023-10-29T14:35:04.317Z,93354.91
2023-10-29T14:38:10.749Z,93352.03
2023-10-29T14:41:19.776Z,93343.94
2023-10-29T14:44:23.573Z,93352.56
2023-10-29T14:47:27.008Z,93346.91
2023-10-29T14:50:30.362Z,93341.44
2023-10-29T14:53:33.977Z,93344.91
2023-10-29T14:56:37.265Z,93344.78
2023-10-29T14:59:40.475Z,93348.31
2023-10-29T15:02:43.867Z,93344.66
2023-10-29T15:05:47.214Z,93344.84
2023-10-29T15:08:51.818Z,93342.84
2023-10-29T15:11:59.328Z,93345.25
2023-10-29T15:15:04.541Z,93343.56
2023-10-29T15:18:13.154Z,93349.66
2023-10-29T15:21:18.134Z,93346.09
2023-10-29T15:24:21.416Z,93342.81
2023-10-29T15:27:26.160Z,93344.34
2023-10-29T15:30:30.937Z,93343.44
2023-10-29T15:33:34.181Z,93343.03
2023-10-29T15:36:37.359Z,93339.19
2023-10-29T15:39:40.649Z,93334.50
2023-10-29T15:42:43.890Z,93333.34
2023-10-29T15:45:47.140Z,93330.84
2023-10-29T15:48:50.613Z,93332.91
2023-10-29T15:51:54.055Z,93320.00
2023-10-29T15:54:57.377Z,93322.28
2023-10-29T15:58:00.605Z,93317.81
2023-10-29T16:01:04.144Z,93321.59
2023-10-29T16:04:07.522Z,93322.00
2023-10-29T16:07:10.832Z,93320.44
2023-10-29T16:10:14.178Z,93314.81
2023-10-29T16:13:17.381Z,93320.22
2023-10-29T16:16:21.710Z,93307.88
2023-10-29T16:19:25.081Z,93310.97
2023-10-29T16:22:28.383Z,93304.50
2023-10-29T16:25:31.606Z,93313.53
2023-10-29T16:28:34.852Z,93311.25
2023-10-29T16:31:38.162Z,93305.75
2023-10-29T16:34:42.579Z,93294.88
2023-10-29T16:37:45.860Z,93298.00
2023-10-29T16:40:49.830Z,93296.25
2023-10-29T16:43:55.227Z,93298.56
2023-10-29T16:46:59.088Z,93294.38
2023-10-29T16:50:03.059Z,93287.53
2023-10-29T16:53:06.949Z,93280.53
2023-10-29T16:56:10.496Z,93285.13
2023-10-29T16:59:13.769Z,93281.38
2023-10-29T17:02:17.703Z,93276.03
2023-10-29T17:05:21.085Z,93282.59
2023-10-29T17:08:24.388Z,93281.16
2023-10-29T17:11:31.515Z,93274.97
2023-10-29T17:14:34.710Z,93270.28
2023-10-29T17:17:38.621Z,93276.47
2023-10-29T17:20:41.901Z,93274.28
2023-10-29T17:23:46.145Z,93277.66
2023-10-29T17:26:49.347Z,93281.00
2023-10-29T17:29:52.589Z,93279.41
2023-10-29T17:32:59.124Z,93276.47
2023-10-29T17:36:02.387Z,93280.88
2023-10-29T17:39:05.901Z,93282.06
2023-10-29T17:42:09.554Z,93285.19
2023-10-29T17:45:14.682Z,93283.41
2023-10-29T17:48:17.982Z,93292.28
2023-10-29T17:51:21.382Z,93299.50
2023-10-29T17:54:25.532Z,93293.84
2023-10-29T17:57:28.773Z,93303.25
2023-10-29T18:00:32.101Z,93301.41
2023-10-29T18:03:35.440Z,93304.38
2023-10-29T18:06:38.726Z,93309.47
2023-10-29T18:09:43.456Z,93308.13
2023-10-29T18:12:49.247Z,93307.88
2023-10-29T18:15:52.131Z,93319.56
2023-10-29T18:18:55.480Z,93312.19
2023-10-29T18:22:00.015Z,93300.59
2023-10-29T18:25:02.891Z,93307.03
2023-10-29T18:28:07.642Z,93305.56
2023-10-29T18:31:12.255Z,93301.78
2023-10-29T18:34:15.501Z,93299.34
2023-10-29T18:37:18.696Z,93307.00
2023-10-29T18:40:22.655Z,93305.66
2023-10-29T18:43:25.890Z,93304.03
2023-10-29T18:46:29.432Z,93302.16
2023-10-29T18:49:33.112Z,93305.38
2023-10-29T18:52:36.856Z,93296.13
2023-10-29T18:55:40.077Z,93295.19
2023-10-29T18:58:46.391Z,93301.25
2023-10-29T19:01:50.440Z,93300.03
2023-10-29T19:04:53.908Z,93302.16
2023-10-29T19:07:57.209Z,93298.56
2023-10-29T19:11:04.329Z,93299.06
2023-10-29T19:14:07.609Z,93292.78
2023-10-29T19:17:11.366Z,93295.50
2023-10-29T19:20:15.436Z,93286.50
2023-10-29T19:23:18.616Z,93289.72
2023-10-29T19:26:21.796Z,93294.28
2023-10-29T19:29:26.047Z,93293.59
2023-10-29T19:32:29.306Z,93290.53
2023-10-29T19:35:33.584Z,93298.06
2023-10-29T19:38:36.774Z,93295.38
2023-10-29T19:41:43.451Z,93292.72
2023-10-29T19:44:47.568Z,93288.16
2023-10-29T19:47:51.114Z,93296.59
2023-10-29T19:51:04.293Z,93290.84
2023-10-29T19:54:08.024Z,93291.53
2023-10-29T19:57:12.077Z,93284.50
2023-10-29T20:00:21.739Z,93294.03
2023-10-29T20:03:25.385Z,93293.34
2023-10-29T20:06:28.609Z,93296.88
2023-10-29T20:09:32.482Z,93306.09
2023-10-29T20:12:36.176Z,93306.06
2023-10-29T20:15:39.697Z,93301.22
2023-10-29T20:18:43.019Z,93299.56
2023-10-29T20:21:46.585Z,93301.91
2023-10-29T20:24:55.782Z,93289.31
2023-10-29T20:27:59.089Z,93285.56
2023-10-29T20:31:02.368Z,93282.91
2023-10-29T20:34:05.700Z,93286.13
2023-10-29T20:37:08.998Z,93288.22
2023-10-29T20:40:13.410Z,93288.50
2023-10-29T20:43:17.917Z,93279.41
2023-10-29T20:46:21.695Z,93277.03
2023-10-29T20:49:24.921Z,93271.50
2023-10-29T20:52:28.395Z,93277.53
2023-10-29T20:55:32.376Z,93273.13
2023-10-29T20:58:36.137Z,93272.09
2023-10-29T21:01:39.334Z,93264.19
2023-10-29T21:04:42.501Z,93273.91
2023-10-29T21:07:46.061Z,93271.38
2023-10-29T21:10:49.566Z,93281.41
2023-10-29T21:13:52.877Z,93277.56
2023-10-29T21:16:56.280Z,93276.16
2023-10-29T21:19:59.556Z,93281.25
2023-10-29T21:23:02.863Z,93284.75
2023-10-29T21:26:06.246Z,93287.53
2023-10-29T21:29:10.971Z,93280.69
2023-10-29T21:32:14.185Z,93284.69
2023-10-29T21:35:17.517Z,93289.41
2023-10-29T21:38:20.682Z,93283.91
2023-10-29T21:41:28.810Z,93274.13
2023-10-29T21:44:32.007Z,93276.47
2023-10-29T21:47:39.388Z,93276.06
2023-10-29T21:50:42.758Z,93274.88
2023-10-29T21:53:46.012Z,93261.59
2023-10-29T21:56:49.553Z,93273.38
2023-10-29T21:59:52.770Z,93274.00
2023-10-29T22:02:56.120Z,93278.13
2023-10-29T22:06:13.491Z,93270.16
2023-10-29T22:09:16.888Z,93271.34
2023-10-29T22:12:20.669Z,93270.38
2023-10-29T22:15:26.697Z,93270.44
2023-10-29T22:18:29.960Z,93275.13
2023-10-29T22:21:33.184Z,93279.13
2023-10-29T22:24:36.521Z,93278.06
2023-10-29T22:27:39.815Z,93289.53
2023-10-29T22:30:43.107Z,93287.06
2023-10-29T22:33:48.396Z,93286.78
2023-10-29T22:36:51.639Z,93294.88
2023-10-29T22:39:54.917Z,93288.44
2023-10-29T22:42:58.084Z,93293.53
2023-10-29T22:46:02.196Z,93290.81
2023-10-29T22:49:05.401Z,93284.31
2023-10-29T22:52:08.596Z,93294.44
2023-10-29T22:55:11.886Z,93290.66
2023-10-29T22:58:15.205Z,93293.56
2023-10-29T23:01:18.586Z,93283.88
2023-10-29T23:04:21.935Z,93289.50
2023-10-29T23:07:25.236Z,93285.78
2023-10-29T23:10:30.188Z,93283.94
2023-10-29T23:13:35.738Z,93278.88
2023-10-29T23:16:39.016Z,93284.63
2023-10-29T23:19:42.273Z,93299.50
2023-10-29T23:22:45.528Z,93294.69
2023-10-29T23:25:48.974Z,93295.81
2023-10-29T23:28:52.159Z,93300.75
2023-10-29T23:31:55.396Z,93306.31
2023-10-29T23:34:58.988Z,93313.69
2023-10-29T23:38:03.588Z,93311.47
2023-10-29T23:41:06.872Z,93310.50
2023-10-29T23:44:10.068Z,93319.31
2023-10-29T23:47:13.310Z,93311.97
2023-10-29T23:50:16.816Z,93317.22
2023-10-29T23:53:20.043Z,93316.22
2023-10-29T23:56:23.222Z,93313.31
2023-10-29T23:59:26.514Z,93324.94
